Soleil Weather Down

Nearby METAR Reports

 

KCNI - Canton/Cherokee, Georgia, USA
Distance from station: ENE 6mi, 10km
Updated: Mon, 26-Sep-2022 7:35am EDT
Clear
Clear
 Wind from NW
Wind: NW 5 mph , 7 km/h
Temperature: 59°F , 15°C
Dew Point: 55°F , 13°C
Humidity: 88%
Barometer: 29.96 inHg , 1014.6 hPa
Clouds: Clear
Visibility: 10 miles , 16 km
2022/09/26 11:35 KCNI 261135Z AUTO 31004KT 10SM CLR 15/13 A2996 RMK AO2 T01530126
KRYY - Marietta Mccolum, Georgia, USA
Distance from station: SSW 18mi, 29km
Updated: Mon, 26-Sep-2022 7:50am EDT
Mist, Overcast
Mist, Overcast
 Wind from WNW
Wind: WNW 5 mph , 7 km/h
Temperature: 63°F , 17°C
Dew Point: 63°F , 17°C
Humidity: 100%
Barometer: 29.97 inHg , 1014.9 hPa
Summary: Mist
Clouds: Overcast
Visibility: 3 miles , 5 km
Cloud details: Overcast 200 ft
2022/09/26 11:50 KRYY 261150Z 29004KT 3SM BR OVC002 17/17 A2997 RMK AO2 SLP140 T01670167 10200 20167 53012 $
KVPC - Cartersville, Georgia, USA
Distance from station: WSW 22mi, 35km
Updated: Mon, 26-Sep-2022 7:55am EDT
Mist, Overcast
Mist, Overcast
 Wind from calm
Wind: Calm
Temperature: 59°F , 15°C
Dew Point: 59°F , 15°C
Humidity: 100%
Barometer: 29.97 inHg , 1014.9 hPa
Summary: Mist
Clouds: Overcast
Visibility: 1 mile , 2 km
Cloud details: Overcast 200 ft
2022/09/26 11:55 KVPC 261155Z AUTO 00000KT 1SM BR OVC002 15/15 A2997 RMK AO2
 
KMGE - Dobbins Afb/Mari, Georgia, USA
Distance from station: S 24mi, 39km
Updated: Mon, 26-Sep-2022 6:55am EDT
Few Clouds
Few Clouds
 Wind from WNW
Wind: WNW 3 mph , 6 km/h
Temperature: 61°F , 16°C
Dew Point: 59°F , 15°C
Humidity: 94%
Barometer: 29.92 inHg , 1013.2 hPa
Clouds: Few Clouds
Visibility: 10 miles , 16 km
Cloud details: Few Clouds 400 ft
Few Clouds 25000 ft
2022/09/26 10:55 KMGE 261055Z 29003KT 10SM FEW004 FEW250 16/15 A2992 RMK AO2A SLP126 T01600150 $
KPDK - Peachtree/Dekalb, Georgia, USA
Distance from station: SSE 29mi, 47km
Updated: Mon, 26-Sep-2022 7:53am EDT
Clear
Clear
 Wind from calm
Wind: Calm
Temperature: 59°F , 15°C
Dew Point: 59°F , 15°C
Humidity: 100%
Barometer: 29.95 inHg , 1014.2 hPa
Clouds: Clear
Visibility: 10 miles , 16 km
2022/09/26 11:53 KPDK 261153Z 00000KT 10SM CLR 15/15 A2995 RMK AO2 SLP132 70001 T01500150 10189 20150 53010
KFTY - Atlanta/Fulton, Georgia, USA
Distance from station: S 34mi, 54km
Updated: Mon, 26-Sep-2022 7:53am EDT
Mist, Overcast
Mist, Overcast
 Wind from NW
Wind: NW 5 mph , 7 km/h
Temperature: 63°F , 17°C
Dew Point: 63°F , 17°C
Humidity: 100%
Barometer: 29.95 inHg , 1014.2 hPa
Summary: Mist
Clouds: Overcast
Visibility: 4 miles , 6 km
Cloud details: Overcast 300 ft
2022/09/26 11:53 KFTY 261153Z 32004KT 4SM BR OVC003 17/17 A2995 RMK AO2 SLP136 T01720167 10189 20156 53012
 
KPUJ - Atlanta/Paulding, Georgia, USA
Distance from station: SW 34mi, 55km
Updated: Mon, 26-Sep-2022 7:55am EDT
Mist, Clear
Mist, Clear
 Wind from calm
Wind: Calm
Temperature: 61°F , 16°C
Dew Point: 61°F , 16°C
Humidity: 100%
Barometer: 29.97 inHg , 1014.9 hPa
Summary: Mist
Clouds: Clear
Visibility: 5 miles , 8 km
2022/09/26 11:55 KPUJ 261155Z AUTO 00000KT 5SM BR CLR 16/16 A2997 RMK AO2
KDNN - Dalton, Georgia, USA
Distance from station: NW 37mi, 59km
Updated: Mon, 26-Sep-2022 7:55am EDT
Mist, Clear
Mist, Clear
 Wind from calm
Wind: Calm
Temperature: 55°F , 13°C
Dew Point: 55°F , 13°C
Humidity: 100%
Barometer: 29.97 inHg , 1014.9 hPa
Summary: Mist
Clouds: Clear
Visibility: 6 miles , 10 km
2022/09/26 11:55 KDNN 261155Z AUTO 00000KT 6SM BR CLR 13/13 A2997 RMK AO2 T01330130
KLZU - Lawrenceville, Georgia, USA
Distance from station: ESE 37mi, 59km
Updated: Mon, 26-Sep-2022 7:56am EDT
Clear
Clear
 Wind from varies
Wind: varies 3 mph , 6 km/h
Temperature: 63°F , 17°C
Dew Point: 61°F , 16°C
Humidity: 94%
Barometer: 29.95 inHg , 1014.2 hPa
Clouds: Clear
Visibility: 10 miles , 16 km
2022/09/26 11:56 KLZU 261156Z VRB03KT 10SM CLR 17/16 A2995 RMK AO2 SLP146 T01670161 10194 20167 53011
 
KRMG - Rome, Georgia, USA
Distance from station: W 38mi, 61km
Updated: Mon, 26-Sep-2022 7:57am EDT
Fog, Overcast
Fog, Overcast
 Wind from calm
Wind: Calm
Temperature: 57°F , 14°C
Dew Point: 55°F , 13°C
Humidity: 94%
Barometer: 29.96 inHg , 1014.6 hPa
Summary: Fog
Clouds: Overcast
Visibility: 1/4 mile , 0.4 km
Cloud details: Overcast 100 ft
2022/09/26 11:57 KRMG 261157Z AUTO 00000KT 1/4SM FG VV001 14/13 A2996 RMK AO2 T01390133 $
KGVL - Gainesville, Georgia, USA
Distance from station: E 39mi, 62km
Updated: Mon, 26-Sep-2022 7:53am EDT
Clear
Clear
 Wind from W
Wind: W 5 mph , 7 km/h
Temperature: 61°F , 16°C
Dew Point: 55°F , 13°C
Humidity: 83%
Barometer: 29.96 inHg , 1014.6 hPa
Clouds: Clear
Visibility: 10 miles , 16 km
2022/09/26 11:53 KGVL 261153Z AUTO 28004KT 10SM CLR 16/13 A2996 RMK AO2 SLP133 T01610128 10200 20161 53010
KATL - Atlanta, Georgia, USA
Distance from station: S 44mi, 71km
Updated: Mon, 26-Sep-2022 7:52am EDT
Few Clouds
Few Clouds
 Wind from NW
Wind: NW 6 mph , 9 km/h
Temperature: 64°F , 18°C
Dew Point: 63°F , 17°C
Humidity: 94%
Barometer: 29.95 inHg , 1014.2 hPa
Clouds: Few Clouds
Visibility: 10 miles , 16 km
Cloud details: Few Clouds 20000 ft
2022/09/26 11:52 KATL 261152Z 31005KT 10SM FEW200 18/17 A2995 RMK AO2 SLP135 T01830167 10217 20183 53011